This is the latest recevied weather packets stored in our database for station/object HB3YKO-13. If no packets are shown the sender has not sent any weather packets the latest 10 day(s).
| Time | Temp. | Humidity | Pressure | Rain* | Wind** | Luminosity | Snow |
|---|---|---|---|---|---|---|---|
| 1777332908 | 0° C | 59% | 0 hPa | 0 mm | - | - | - |
| 1777332608 | 0.56° C | 59% | 0 hPa | 0 mm | - | - | - |
| 1777332308 | 0.56° C | 57% | 0 hPa | 0 mm | - | - | - |
| 1777331709 | 1.11° C | 63% | 0 hPa | 0 mm | - | - | - |
| 1777328708 | 1.11° C | 61% | 0 hPa | 0 mm | - | - | - |
| 1777313709 | 8.89° C | 32% | 0 hPa | 0 mm | - | - | - |
| 1777313109 | 9.44° C | 30% | 0 hPa | 0 mm | - | - | - |
| 1777311609 | 11.11° C | 29% | 0 hPa | 0 mm | - | - | - |
| 1777311309 | 11.11° C | 29% | 0 hPa | 0 mm | - | - | - |
| 1777310409 | 11.67° C | 27% | 0 hPa | 0 mm | - | - | - |
| 1777308609 | 10.56° C | 28% | 0 hPa | 0 mm | - | - | - |
| 1777306209 | 11.11° C | 26% | 0 hPa | 0 mm | - | - | - |
| 1777305609 | 10.56° C | 27% | 0 hPa | 0 mm | - | - | - |
| 1777305309 | 10.56° C | 26% | 0 hPa | 0 mm | - | - | - |
| 1777304109 | 10.56° C | 26% | 0 hPa | 0 mm | - | - | - |
| 1777302909 | 9.44° C | 26% | 0 hPa | 0 mm | - | - | - |
| 1777300809 | 8.89° C | 25% | 0 hPa | 0 mm | - | - | - |
| 1777300509 | 8.89° C | 26% | 0 hPa | 0 mm | - | - | - |
| 1777300209 | 8.33° C | 27% | 0 hPa | 0 mm | - | - | - |
| 1777299909 | 7.78° C | 26% | 0 hPa | 0 mm | - | - | - |
| 1777299609 | 8.33° C | 25% | 0 hPa | 0 mm | - | - | - |
| 1777299309 | 8.33° C | 27% | 0 hPa | 0 mm | - | - | - |
| 1777299009 | 8.33° C | 26% | 0 hPa | 0 mm | - | - | - |
| 1777298709 | -17.78° C | 100% | 0 hPa | 0 mm | - | - | - |
| 1777296909 | 7.78° C | 30% | 0 hPa | 0 mm | - | - | - |
* Rain latest hour (hover to see other rain measurements)
** Current wind speed in m/s (hover to see current wind gust speed)